sensor_id;sensor_type;location;lat;lon;timestamp;temperature;humidity
45765;DHT22;31474;45.332;10.230;2022-11-15T00:00:26;10.30;99.90
45765;DHT22;31474;45.332;10.230;2022-11-15T00:02:52;10.30;99.90
45765;DHT22;31474;45.332;10.230;2022-11-15T00:05:18;10.30;99.90
45765;DHT22;31474;45.332;10.230;2022-11-15T00:07:44;10.30;99.90
45765;DHT22;31474;45.332;10.230;2022-11-15T00:10:09;10.20;99.90
45765;DHT22;31474;45.332;10.230;2022-11-15T00:12:35;10.20;99.90
45765;DHT22;31474;45.332;10.230;2022-11-15T00:15:01;10.20;99.90
45765;DHT22;31474;45.332;10.230;2022-11-15T00:17:27;10.20;99.90
45765;DHT22;31474;45.332;10.230;2022-11-15T00:19:52;10.20;99.90
45765;DHT22;31474;45.332;10.230;2022-11-15T00:22:18;10.20;99.90
45765;DHT22;31474;45.332;10.230;2022-11-15T00:24:43;10.20;99.90
45765;DHT22;31474;45.332;10.230;2022-11-15T00:27:09;10.10;99.90
45765;DHT22;31474;45.332;10.230;2022-11-15T00:29:35;10.10;99.90
45765;DHT22;31474;45.332;10.230;2022-11-15T00:32:02;10.10;99.90
45765;DHT22;31474;45.332;10.230;2022-11-15T00:34:28;10.10;99.90
45765;DHT22;31474;45.332;10.230;2022-11-15T00:36:54;10.10;99.90
45765;DHT22;31474;45.332;10.230;2022-11-15T00:39:19;10.10;99.90
45765;DHT22;31474;45.332;10.230;2022-11-15T00:41:45;10.10;99.90
45765;DHT22;31474;45.332;10.230;2022-11-15T00:44:10;10.00;99.90
45765;DHT22;31474;45.332;10.230;2022-11-15T00:46:36;10.00;99.90
45765;DHT22;31474;45.332;10.230;2022-11-15T00:49:02;10.00;99.90
45765;DHT22;31474;45.332;10.230;2022-11-15T00:51:27;10.00;99.90
45765;DHT22;31474;45.332;10.230;2022-11-15T00:53:54;10.00;99.90
45765;DHT22;31474;45.332;10.230;2022-11-15T00:56:19;10.00;99.90
45765;DHT22;31474;45.332;10.230;2022-11-15T00:58:45;10.00;99.90
45765;DHT22;31474;45.332;10.230;2022-11-15T01:01:12;10.00;99.90
45765;DHT22;31474;45.332;10.230;2022-11-15T01:03:39;10.00;99.90
45765;DHT22;31474;45.332;10.230;2022-11-15T01:06:07;10.00;99.90
45765;DHT22;31474;45.332;10.230;2022-11-15T01:08:33;10.00;99.90
45765;DHT22;31474;45.332;10.230;2022-11-15T01:11:07;10.00;99.90
45765;DHT22;31474;45.332;10.230;2022-11-15T01:13:35;10.00;99.90
45765;DHT22;31474;45.332;10.230;2022-11-15T01:16:13;10.00;99.90
45765;DHT22;31474;45.332;10.230;2022-11-15T01:18:39;10.00;99.90
45765;DHT22;31474;45.332;10.230;2022-11-15T01:21:07;10.10;99.90
45765;DHT22;31474;45.332;10.230;2022-11-15T01:23:33;10.00;99.90
45765;DHT22;31474;45.332;10.230;2022-11-15T01:26:05;10.10;99.90
45765;DHT22;31474;45.332;10.230;2022-11-15T01:28:32;10.00;99.90
45765;DHT22;31474;45.332;10.230;2022-11-15T01:31:00;10.10;99.90
45765;DHT22;31474;45.332;10.230;2022-11-15T01:33:26;10.10;99.90
45765;DHT22;31474;45.332;10.230;2022-11-15T01:35:52;10.10;99.90
45765;DHT22;31474;45.332;10.230;2022-11-15T01:38:18;10.10;99.90
45765;DHT22;31474;45.332;10.230;2022-11-15T01:40:43;10.10;99.90
45765;DHT22;31474;45.332;10.230;2022-11-15T01:43:32;10.10;99.90
45765;DHT22;31474;45.332;10.230;2022-11-15T01:46:17;10.10;99.90
45765;DHT22;31474;45.332;10.230;2022-11-15T01:48:46;10.00;99.90
45765;DHT22;31474;45.332;10.230;2022-11-15T01:51:13;9.90;99.90
45765;DHT22;31474;45.332;10.230;2022-11-15T01:53:44;9.90;99.90
45765;DHT22;31474;45.332;10.230;2022-11-15T01:56:14;9.90;99.90
45765;DHT22;31474;45.332;10.230;2022-11-15T01:58:41;9.90;99.90
45765;DHT22;31474;45.332;10.230;2022-11-15T02:01:07;9.90;99.90
45765;DHT22;31474;45.332;10.230;2022-11-15T02:03:42;9.90;99.90
45765;DHT22;31474;45.332;10.230;2022-11-15T02:06:11;9.90;99.90
45765;DHT22;31474;45.332;10.230;2022-11-15T02:08:36;9.80;99.90
45765;DHT22;31474;45.332;10.230;2022-11-15T02:11:07;9.80;99.90
45765;DHT22;31474;45.332;10.230;2022-11-15T02:13:33;9.80;99.90
45765;DHT22;31474;45.332;10.230;2022-11-15T02:16:12;9.80;99.90
45765;DHT22;31474;45.332;10.230;2022-11-15T02:18:49;9.80;99.90
45765;DHT22;31474;45.332;10.230;2022-11-15T02:21:34;9.80;99.90
45765;DHT22;31474;45.332;10.230;2022-11-15T02:27:39;9.80;99.90
45765;DHT22;31474;45.332;10.230;2022-11-15T02:30:19;9.90;99.90
45765;DHT22;31474;45.332;10.230;2022-11-15T02:32:52;9.80;99.90
45765;DHT22;31474;45.332;10.230;2022-11-15T02:37:59;9.80;99.90
45765;DHT22;31474;45.332;10.230;2022-11-15T02:40:45;9.80;99.90
45765;DHT22;31474;45.332;10.230;2022-11-15T02:43:21;9.80;99.90
45765;DHT22;31474;45.332;10.230;2022-11-15T02:49:21;9.80;99.90
45765;DHT22;31474;45.332;10.230;2022-11-15T02:51:49;9.80;99.90
45765;DHT22;31474;45.332;10.230;2022-11-15T02:54:24;9.80;99.90
45765;DHT22;31474;45.332;10.230;2022-11-15T02:56:53;9.70;99.90
45765;DHT22;31474;45.332;10.230;2022-11-15T03:07:45;9.70;99.90
45765;DHT22;31474;45.332;10.230;2022-11-15T03:12:56;9.60;99.90
45765;DHT22;31474;45.332;10.230;2022-11-15T03:15:37;9.60;99.90
45765;DHT22;31474;45.332;10.230;2022-11-15T03:18:15;9.60;99.90
45765;DHT22;31474;45.332;10.230;2022-11-15T03:20:43;9.60;99.90
45765;DHT22;31474;45.332;10.230;2022-11-15T03:23:10;9.60;99.90
45765;DHT22;31474;45.332;10.230;2022-11-15T03:25:47;9.50;99.90
45765;DHT22;31474;45.332;10.230;2022-11-15T03:28:20;9.40;99.90
45765;DHT22;31474;45.332;10.230;2022-11-15T03:30:49;9.30;99.90
45765;DHT22;31474;45.332;10.230;2022-11-15T03:33:16;9.40;99.90
45765;DHT22;31474;45.332;10.230;2022-11-15T03:35:44;9.40;99.90
45765;DHT22;31474;45.332;10.230;2022-11-15T03:38:22;9.40;99.90
45765;DHT22;31474;45.332;10.230;2022-11-15T03:43:47;9.50;99.90
45765;DHT22;31474;45.332;10.230;2022-11-15T03:46:35;9.50;99.90
45765;DHT22;31474;45.332;10.230;2022-11-15T03:49:12;9.40;99.90
45765;DHT22;31474;45.332;10.230;2022-11-15T03:51:39;9.30;99.90
45765;DHT22;31474;45.332;10.230;2022-11-15T03:54:05;9.30;99.90
45765;DHT22;31474;45.332;10.230;2022-11-15T03:56:31;9.30;99.90
45765;DHT22;31474;45.332;10.230;2022-11-15T03:58:57;9.20;99.90
45765;DHT22;31474;45.332;10.230;2022-11-15T04:01:22;9.20;99.90
45765;DHT22;31474;45.332;10.230;2022-11-15T04:03:48;9.30;99.90
45765;DHT22;31474;45.332;10.230;2022-11-15T04:06:14;9.30;99.90
45765;DHT22;31474;45.332;10.230;2022-11-15T04:08:39;9.30;99.90
45765;DHT22;31474;45.332;10.230;2022-11-15T04:11:05;9.30;99.90
45765;DHT22;31474;45.332;10.230;2022-11-15T04:13:31;9.20;99.90
45765;DHT22;31474;45.332;10.230;2022-11-15T04:15:56;9.20;99.90
45765;DHT22;31474;45.332;10.230;2022-11-15T04:18:22;9.10;99.90
45765;DHT22;31474;45.332;10.230;2022-11-15T04:20:49;9.10;99.90
45765;DHT22;31474;45.332;10.230;2022-11-15T04:23:33;9.10;99.90
45765;DHT22;31474;45.332;10.230;2022-11-15T04:26:20;9.10;99.90
45765;DHT22;31474;45.332;10.230;2022-11-15T04:28:46;9.20;99.90
45765;DHT22;31474;45.332;10.230;2022-11-15T04:31:30;9.20;99.90
45765;DHT22;31474;45.332;10.230;2022-11-15T04:33:56;9.30;99.90
45765;DHT22;31474;45.332;10.230;2022-11-15T04:36:22;9.20;99.90
45765;DHT22;31474;45.332;10.230;2022-11-15T04:39:14;9.30;99.90
45765;DHT22;31474;45.332;10.230;2022-11-15T04:41:40;9.20;99.90
45765;DHT22;31474;45.332;10.230;2022-11-15T04:44:06;9.20;99.90
45765;DHT22;31474;45.332;10.230;2022-11-15T04:46:31;9.20;99.90
45765;DHT22;31474;45.332;10.230;2022-11-15T04:48:57;9.20;99.90
45765;DHT22;31474;45.332;10.230;2022-11-15T04:51:22;9.10;99.90
45765;DHT22;31474;45.332;10.230;2022-11-15T04:53:48;9.10;99.90
45765;DHT22;31474;45.332;10.230;2022-11-15T04:56:14;9.10;99.90
45765;DHT22;31474;45.332;10.230;2022-11-15T04:58:39;9.10;99.90
45765;DHT22;31474;45.332;10.230;2022-11-15T05:01:13;9.30;99.90
45765;DHT22;31474;45.332;10.230;2022-11-15T05:03:42;9.20;99.90
45765;DHT22;31474;45.332;10.230;2022-11-15T05:06:26;9.30;99.90
45765;DHT22;31474;45.332;10.230;2022-11-15T05:08:52;9.20;99.90
45765;DHT22;31474;45.332;10.230;2022-11-15T05:11:18;9.30;99.90
45765;DHT22;31474;45.332;10.230;2022-11-15T05:13:44;9.30;99.90
45765;DHT22;31474;45.332;10.230;2022-11-15T05:16:09;9.30;99.90
45765;DHT22;31474;45.332;10.230;2022-11-15T05:18:35;9.30;99.90
45765;DHT22;31474;45.332;10.230;2022-11-15T05:21:09;9.30;99.90
45765;DHT22;31474;45.332;10.230;2022-11-15T05:23:35;9.40;99.90
45765;DHT22;31474;45.332;10.230;2022-11-15T05:26:01;9.40;99.90
45765;DHT22;31474;45.332;10.230;2022-11-15T05:28:27;9.40;99.90
45765;DHT22;31474;45.332;10.230;2022-11-15T05:30:53;9.40;99.90
45765;DHT22;31474;45.332;10.230;2022-11-15T05:33:24;9.40;99.90
45765;DHT22;31474;45.332;10.230;2022-11-15T05:35:55;9.50;99.90
45765;DHT22;31474;45.332;10.230;2022-11-15T05:38:23;9.50;99.90
45765;DHT22;31474;45.332;10.230;2022-11-15T05:40:49;9.50;99.90
45765;DHT22;31474;45.332;10.230;2022-11-15T05:43:15;9.50;99.90
45765;DHT22;31474;45.332;10.230;2022-11-15T05:45:40;9.50;99.90
45765;DHT22;31474;45.332;10.230;2022-11-15T05:48:07;9.40;99.90
45765;DHT22;31474;45.332;10.230;2022-11-15T05:50:37;9.40;99.90
45765;DHT22;31474;45.332;10.230;2022-11-15T05:53:04;9.50;99.90
45765;DHT22;31474;45.332;10.230;2022-11-15T05:55:31;9.50;99.90
45765;DHT22;31474;45.332;10.230;2022-11-15T05:57:57;9.40;99.90
45765;DHT22;31474;45.332;10.230;2022-11-15T06:00:22;9.50;99.90
45765;DHT22;31474;45.332;10.230;2022-11-15T06:02:48;9.60;99.90
45765;DHT22;31474;45.332;10.230;2022-11-15T06:05:14;9.70;99.90
45765;DHT22;31474;45.332;10.230;2022-11-15T06:07:39;9.70;99.90
45765;DHT22;31474;45.332;10.230;2022-11-15T06:10:05;9.70;99.90
45765;DHT22;31474;45.332;10.230;2022-11-15T06:12:31;9.70;99.90
45765;DHT22;31474;45.332;10.230;2022-11-15T06:14:57;9.70;99.90
45765;DHT22;31474;45.332;10.230;2022-11-15T06:17:22;9.70;99.90
45765;DHT22;31474;45.332;10.230;2022-11-15T06:19:48;9.70;99.90
45765;DHT22;31474;45.332;10.230;2022-11-15T06:22:14;9.70;99.90
45765;DHT22;31474;45.332;10.230;2022-11-15T06:24:39;9.70;99.90
45765;DHT22;31474;45.332;10.230;2022-11-15T06:27:05;9.80;99.90
45765;DHT22;31474;45.332;10.230;2022-11-15T06:29:30;9.80;99.90
45765;DHT22;31474;45.332;10.230;2022-11-15T06:31:56;9.70;99.90
45765;DHT22;31474;45.332;10.230;2022-11-15T06:34:22;9.80;99.90
45765;DHT22;31474;45.332;10.230;2022-11-15T06:36:47;9.80;99.90
45765;DHT22;31474;45.332;10.230;2022-11-15T06:39:13;9.80;99.90
45765;DHT22;31474;45.332;10.230;2022-11-15T06:41:38;9.80;99.90
45765;DHT22;31474;45.332;10.230;2022-11-15T06:44:04;9.80;99.90
45765;DHT22;31474;45.332;10.230;2022-11-15T06:46:30;9.90;99.90
45765;DHT22;31474;45.332;10.230;2022-11-15T06:48:55;9.90;99.90
45765;DHT22;31474;45.332;10.230;2022-11-15T06:51:21;9.90;99.90
45765;DHT22;31474;45.332;10.230;2022-11-15T06:53:47;9.90;99.90
45765;DHT22;31474;45.332;10.230;2022-11-15T06:56:12;9.90;99.90
45765;DHT22;31474;45.332;10.230;2022-11-15T06:58:38;9.90;99.90
45765;DHT22;31474;45.332;10.230;2022-11-15T07:01:09;10.00;99.90
45765;DHT22;31474;45.332;10.230;2022-11-15T07:03:40;10.00;99.90
45765;DHT22;31474;45.332;10.230;2022-11-15T07:06:07;10.00;99.90
45765;DHT22;31474;45.332;10.230;2022-11-15T07:08:33;10.00;99.90
45765;DHT22;31474;45.332;10.230;2022-11-15T07:11:06;10.00;99.90
45765;DHT22;31474;45.332;10.230;2022-11-15T07:13:32;10.00;99.90
45765;DHT22;31474;45.332;10.230;2022-11-15T07:16:02;10.00;99.90
45765;DHT22;31474;45.332;10.230;2022-11-15T07:18:29;10.00;99.90
45765;DHT22;31474;45.332;10.230;2022-11-15T07:20:55;10.00;99.90
45765;DHT22;31474;45.332;10.230;2022-11-15T07:23:21;10.00;99.90
45765;DHT22;31474;45.332;10.230;2022-11-15T07:25:46;10.00;99.90
45765;DHT22;31474;45.332;10.230;2022-11-15T07:28:12;10.10;99.90
45765;DHT22;31474;45.332;10.230;2022-11-15T07:30:37;10.10;99.90
45765;DHT22;31474;45.332;10.230;2022-11-15T07:33:03;10.10;99.90
45765;DHT22;31474;45.332;10.230;2022-11-15T07:35:29;10.10;99.90
45765;DHT22;31474;45.332;10.230;2022-11-15T07:37:59;10.20;99.90
45765;DHT22;31474;45.332;10.230;2022-11-15T07:40:26;10.20;99.90
45765;DHT22;31474;45.332;10.230;2022-11-15T07:42:52;10.20;99.90
45765;DHT22;31474;45.332;10.230;2022-11-15T07:45:18;10.20;99.90
45765;DHT22;31474;45.332;10.230;2022-11-15T07:47:48;10.30;99.90
45765;DHT22;31474;45.332;10.230;2022-11-15T07:50:13;10.30;99.90
45765;DHT22;31474;45.332;10.230;2022-11-15T07:52:39;10.30;99.90
45765;DHT22;31474;45.332;10.230;2022-11-15T07:55:05;10.30;99.90
45765;DHT22;31474;45.332;10.230;2022-11-15T07:57:31;10.30;99.90
45765;DHT22;31474;45.332;10.230;2022-11-15T07:59:56;10.30;99.90
45765;DHT22;31474;45.332;10.230;2022-11-15T08:02:22;10.30;99.90
45765;DHT22;31474;45.332;10.230;2022-11-15T08:04:48;10.30;99.90
45765;DHT22;31474;45.332;10.230;2022-11-15T08:07:13;10.30;99.90
45765;DHT22;31474;45.332;10.230;2022-11-15T08:09:39;10.40;99.90
45765;DHT22;31474;45.332;10.230;2022-11-15T08:12:05;10.40;99.90
45765;DHT22;31474;45.332;10.230;2022-11-15T08:14:31;10.30;99.90
45765;DHT22;31474;45.332;10.230;2022-11-15T08:16:56;10.30;99.90
45765;DHT22;31474;45.332;10.230;2022-11-15T08:19:22;10.40;99.90
45765;DHT22;31474;45.332;10.230;2022-11-15T08:21:48;10.40;99.90
45765;DHT22;31474;45.332;10.230;2022-11-15T08:24:14;10.40;99.90
45765;DHT22;31474;45.332;10.230;2022-11-15T08:26:39;10.40;99.90
45765;DHT22;31474;45.332;10.230;2022-11-15T08:29:06;10.30;99.90
45765;DHT22;31474;45.332;10.230;2022-11-15T08:31:34;10.40;99.90
45765;DHT22;31474;45.332;10.230;2022-11-15T08:34:02;10.30;99.90
45765;DHT22;31474;45.332;10.230;2022-11-15T08:36:28;10.40;99.90
45765;DHT22;31474;45.332;10.230;2022-11-15T08:38:53;10.30;99.90
45765;DHT22;31474;45.332;10.230;2022-11-15T08:41:32;10.40;99.90
45765;DHT22;31474;45.332;10.230;2022-11-15T08:43:59;10.40;99.90
45765;DHT22;31474;45.332;10.230;2022-11-15T08:46:24;10.50;99.90
45765;DHT22;31474;45.332;10.230;2022-11-15T08:48:50;10.50;99.90
45765;DHT22;31474;45.332;10.230;2022-11-15T08:51:16;10.60;99.90
45765;DHT22;31474;45.332;10.230;2022-11-15T08:53:42;10.60;99.90
45765;DHT22;31474;45.332;10.230;2022-11-15T08:56:08;10.60;99.90
45765;DHT22;31474;45.332;10.230;2022-11-15T08:58:35;10.60;99.90
45765;DHT22;31474;45.332;10.230;2022-11-15T09:01:01;10.60;99.90
45765;DHT22;31474;45.332;10.230;2022-11-15T09:03:27;10.70;99.90
45765;DHT22;31474;45.332;10.230;2022-11-15T09:06:00;10.70;99.90
45765;DHT22;31474;45.332;10.230;2022-11-15T09:08:29;10.70;99.90
45765;DHT22;31474;45.332;10.230;2022-11-15T09:10:55;10.70;99.90
45765;DHT22;31474;45.332;10.230;2022-11-15T09:13:21;10.70;99.90
45765;DHT22;31474;45.332;10.230;2022-11-15T09:15:47;10.70;99.90
45765;DHT22;31474;45.332;10.230;2022-11-15T09:18:13;10.70;99.90
45765;DHT22;31474;45.332;10.230;2022-11-15T09:20:39;10.70;99.90
45765;DHT22;31474;45.332;10.230;2022-11-15T09:23:05;10.60;99.90
45765;DHT22;31474;45.332;10.230;2022-11-15T09:25:31;10.70;99.90
45765;DHT22;31474;45.332;10.230;2022-11-15T09:27:57;10.70;99.90
45765;DHT22;31474;45.332;10.230;2022-11-15T09:30:24;10.70;99.90
45765;DHT22;31474;45.332;10.230;2022-11-15T09:32:50;10.80;99.90
45765;DHT22;31474;45.332;10.230;2022-11-15T09:35:16;10.80;99.90
45765;DHT22;31474;45.332;10.230;2022-11-15T09:37:42;10.80;99.90
45765;DHT22;31474;45.332;10.230;2022-11-15T09:40:13;10.90;99.90
45765;DHT22;31474;45.332;10.230;2022-11-15T09:45:24;11.00;99.90
45765;DHT22;31474;45.332;10.230;2022-11-15T09:50:49;11.00;99.90
45765;DHT22;31474;45.332;10.230;2022-11-15T09:53:36;11.00;99.90
45765;DHT22;31474;45.332;10.230;2022-11-15T09:56:19;11.00;99.90
45765;DHT22;31474;45.332;10.230;2022-11-15T10:04:22;11.10;99.90
45765;DHT22;31474;45.332;10.230;2022-11-15T10:07:45;11.20;99.90
45765;DHT22;31474;45.332;10.230;2022-11-15T10:09:51;11.20;99.90
45765;DHT22;31474;45.332;10.230;2022-11-15T10:12:18;11.20;99.90
45765;DHT22;31474;45.332;10.230;2022-11-15T10:14:46;11.20;99.90
45765;DHT22;31474;45.332;10.230;2022-11-15T10:22:28;11.30;99.90
45765;DHT22;31474;45.332;10.230;2022-11-15T10:27:33;11.30;99.90
45765;DHT22;31474;45.332;10.230;2022-11-15T10:29:59;11.30;99.90
45765;DHT22;31474;45.332;10.230;2022-11-15T10:32:25;11.30;99.90
45765;DHT22;31474;45.332;10.230;2022-11-15T10:34:51;11.30;99.90
45765;DHT22;31474;45.332;10.230;2022-11-15T10:37:30;11.30;99.90
45765;DHT22;31474;45.332;10.230;2022-11-15T10:40:17;11.30;99.90
45765;DHT22;31474;45.332;10.230;2022-11-15T10:42:43;11.30;99.90
45765;DHT22;31474;45.332;10.230;2022-11-15T10:45:28;11.30;99.90
45765;DHT22;31474;45.332;10.230;2022-11-15T10:50:41;11.40;99.90
45765;DHT22;31474;45.332;10.230;2022-11-15T10:53:31;11.40;99.90
45765;DHT22;31474;45.332;10.230;2022-11-15T10:56:02;11.40;99.90
45765;DHT22;31474;45.332;10.230;2022-11-15T10:58:34;11.40;99.90
45765;DHT22;31474;45.332;10.230;2022-11-15T11:01:11;11.50;99.90
45765;DHT22;31474;45.332;10.230;2022-11-15T11:03:39;11.50;99.90
45765;DHT22;31474;45.332;10.230;2022-11-15T11:06:15;11.50;99.90
45765;DHT22;31474;45.332;10.230;2022-11-15T11:09:03;11.60;99.90
45765;DHT22;31474;45.332;10.230;2022-11-15T11:11:48;11.70;99.90
45765;DHT22;31474;45.332;10.230;2022-11-15T11:14:43;11.70;99.90
45765;DHT22;31474;45.332;10.230;2022-11-15T11:17:43;11.70;99.90
45765;DHT22;31474;45.332;10.230;2022-11-15T11:27:59;11.70;99.90
45765;DHT22;31474;45.332;10.230;2022-11-15T11:33:31;11.70;99.90
45765;DHT22;31474;45.332;10.230;2022-11-15T11:37:00;11.80;99.90
45765;DHT22;31474;45.332;10.230;2022-11-15T11:39:11;11.80;99.90
45765;DHT22;31474;45.332;10.230;2022-11-15T11:47:01;11.80;99.90
45765;DHT22;31474;45.332;10.230;2022-11-15T11:49:35;11.80;99.90
45765;DHT22;31474;45.332;10.230;2022-11-15T11:55:20;11.80;99.90
45765;DHT22;31474;45.332;10.230;2022-11-15T11:58:37;11.90;99.90
45765;DHT22;31474;45.332;10.230;2022-11-15T12:00:41;11.90;99.90
45765;DHT22;31474;45.332;10.230;2022-11-15T12:05:51;11.90;99.90
45765;DHT22;31474;45.332;10.230;2022-11-15T12:14:04;11.90;99.90
45765;DHT22;31474;45.332;10.230;2022-11-15T12:16:32;11.90;99.90
45765;DHT22;31474;45.332;10.230;2022-11-15T12:19:03;11.90;99.90
45765;DHT22;31474;45.332;10.230;2022-11-15T12:24:20;11.80;99.90
45765;DHT22;31474;45.332;10.230;2022-11-15T12:26:55;11.90;99.90
45765;DHT22;31474;45.332;10.230;2022-11-15T12:29:39;12.00;99.90
45765;DHT22;31474;45.332;10.230;2022-11-15T12:32:06;12.00;99.90
45765;DHT22;31474;45.332;10.230;2022-11-15T12:34:45;12.00;99.90
45765;DHT22;31474;45.332;10.230;2022-11-15T12:43:01;12.00;99.90
45765;DHT22;31474;45.332;10.230;2022-11-15T12:45:33;12.00;99.90
45765;DHT22;31474;45.332;10.230;2022-11-15T12:58:55;12.00;99.90
45765;DHT22;31474;45.332;10.230;2022-11-15T13:09:56;11.90;99.90
45765;DHT22;31474;45.332;10.230;2022-11-15T13:14:56;11.90;99.90
45765;DHT22;31474;45.332;10.230;2022-11-15T13:17:23;11.90;99.90
45765;DHT22;31474;45.332;10.230;2022-11-15T13:30:41;11.90;99.90
45765;DHT22;31474;45.332;10.230;2022-11-15T13:33:36;12.00;99.90
45765;DHT22;31474;45.332;10.230;2022-11-15T13:36:12;12.00;99.90
45765;DHT22;31474;45.332;10.230;2022-11-15T13:38:43;12.00;99.90
45765;DHT22;31474;45.332;10.230;2022-11-15T13:41:30;12.00;99.90
45765;DHT22;31474;45.332;10.230;2022-11-15T13:43:57;11.90;99.90
45765;DHT22;31474;45.332;10.230;2022-11-15T13:48:58;11.90;99.90
45765;DHT22;31474;45.332;10.230;2022-11-15T13:57:17;11.90;99.90
45765;DHT22;31474;45.332;10.230;2022-11-15T14:02:18;11.90;99.90
45765;DHT22;31474;45.332;10.230;2022-11-15T14:05:02;11.90;99.90
45765;DHT22;31474;45.332;10.230;2022-11-15T14:07:28;11.90;99.90
45765;DHT22;31474;45.332;10.230;2022-11-15T14:09:54;11.90;99.90
45765;DHT22;31474;45.332;10.230;2022-11-15T14:12:34;11.90;99.90
45765;DHT22;31474;45.332;10.230;2022-11-15T14:15:18;11.90;99.90
45765;DHT22;31474;45.332;10.230;2022-11-15T14:17:44;11.90;99.90
45765;DHT22;31474;45.332;10.230;2022-11-15T14:20:40;11.90;99.90
45765;DHT22;31474;45.332;10.230;2022-11-15T14:25:56;11.90;99.90
45765;DHT22;31474;45.332;10.230;2022-11-15T14:30:52;11.90;99.90
45765;DHT22;31474;45.332;10.230;2022-11-15T14:35:50;11.90;99.90
45765;DHT22;31474;45.332;10.230;2022-11-15T14:38:16;11.90;99.90
45765;DHT22;31474;45.332;10.230;2022-11-15T14:40:42;11.90;99.90
45765;DHT22;31474;45.332;10.230;2022-11-15T14:43:12;11.90;99.90
45765;DHT22;31474;45.332;10.230;2022-11-15T14:45:38;11.80;99.90
45765;DHT22;31474;45.332;10.230;2022-11-15T14:48:05;11.80;99.90
45765;DHT22;31474;45.332;10.230;2022-11-15T14:50:32;11.80;99.90
45765;DHT22;31474;45.332;10.230;2022-11-15T14:52:58;11.80;99.90
45765;DHT22;31474;45.332;10.230;2022-11-15T14:55:26;11.80;99.90
45765;DHT22;31474;45.332;10.230;2022-11-15T14:57:54;11.80;99.90
45765;DHT22;31474;45.332;10.230;2022-11-15T15:00:20;11.80;99.90
45765;DHT22;31474;45.332;10.230;2022-11-15T15:02:47;11.80;99.90
45765;DHT22;31474;45.332;10.230;2022-11-15T15:05:16;11.80;99.90
45765;DHT22;31474;45.332;10.230;2022-11-15T15:07:42;11.80;99.90
45765;DHT22;31474;45.332;10.230;2022-11-15T15:10:09;11.80;99.90
45765;DHT22;31474;45.332;10.230;2022-11-15T15:12:34;11.80;99.90
45765;DHT22;31474;45.332;10.230;2022-11-15T15:15:00;11.80;99.90
45765;DHT22;31474;45.332;10.230;2022-11-15T15:17:26;11.80;99.90
45765;DHT22;31474;45.332;10.230;2022-11-15T15:19:51;11.80;99.90
45765;DHT22;31474;45.332;10.230;2022-11-15T15:22:18;11.80;99.90
45765;DHT22;31474;45.332;10.230;2022-11-15T15:24:45;11.80;99.90
45765;DHT22;31474;45.332;10.230;2022-11-15T15:27:12;11.80;99.90
45765;DHT22;31474;45.332;10.230;2022-11-15T15:29:38;11.80;99.90
45765;DHT22;31474;45.332;10.230;2022-11-15T15:32:04;11.70;99.90
45765;DHT22;31474;45.332;10.230;2022-11-15T15:34:31;11.70;99.90
45765;DHT22;31474;45.332;10.230;2022-11-15T15:39:48;11.60;99.90
45765;DHT22;31474;45.332;10.230;2022-11-15T15:42:14;11.60;99.90
45765;DHT22;31474;45.332;10.230;2022-11-15T15:44:40;11.60;99.90
45765;DHT22;31474;45.332;10.230;2022-11-15T15:47:20;11.60;99.90
45765;DHT22;31474;45.332;10.230;2022-11-15T15:49:47;11.60;99.90
45765;DHT22;31474;45.332;10.230;2022-11-15T15:52:13;11.60;99.90
45765;DHT22;31474;45.332;10.230;2022-11-15T15:54:39;11.50;99.90
45765;DHT22;31474;45.332;10.230;2022-11-15T15:57:06;11.50;99.90
45765;DHT22;31474;45.332;10.230;2022-11-15T15:59:32;11.50;99.90
45765;DHT22;31474;45.332;10.230;2022-11-15T16:01:57;11.60;99.90
45765;DHT22;31474;45.332;10.230;2022-11-15T16:04:24;11.60;99.90
45765;DHT22;31474;45.332;10.230;2022-11-15T16:06:49;11.60;99.90
45765;DHT22;31474;45.332;10.230;2022-11-15T16:09:18;11.60;99.90
45765;DHT22;31474;45.332;10.230;2022-11-15T16:12:04;11.60;99.90
45765;DHT22;31474;45.332;10.230;2022-11-15T16:14:31;11.60;99.90
45765;DHT22;31474;45.332;10.230;2022-11-15T16:16:57;11.60;99.90
45765;DHT22;31474;45.332;10.230;2022-11-15T16:19:22;11.60;99.90
45765;DHT22;31474;45.332;10.230;2022-11-15T16:21:48;11.60;99.90
45765;DHT22;31474;45.332;10.230;2022-11-15T16:24:14;11.60;99.90
45765;DHT22;31474;45.332;10.230;2022-11-15T16:26:40;11.50;99.90
45765;DHT22;31474;45.332;10.230;2022-11-15T16:29:05;11.50;99.90
45765;DHT22;31474;45.332;10.230;2022-11-15T16:31:32;11.50;99.90
45765;DHT22;31474;45.332;10.230;2022-11-15T16:33:58;11.50;99.90
45765;DHT22;31474;45.332;10.230;2022-11-15T16:36:25;11.50;99.90
45765;DHT22;31474;45.332;10.230;2022-11-15T16:38:51;11.50;99.90
45765;DHT22;31474;45.332;10.230;2022-11-15T16:41:17;11.50;99.90
45765;DHT22;31474;45.332;10.230;2022-11-15T16:43:45;11.50;99.90
45765;DHT22;31474;45.332;10.230;2022-11-15T16:46:29;11.50;99.90
45765;DHT22;31474;45.332;10.230;2022-11-15T16:48:55;11.40;99.90
45765;DHT22;31474;45.332;10.230;2022-11-15T16:51:22;11.30;99.90
45765;DHT22;31474;45.332;10.230;2022-11-15T16:53:48;11.30;99.90
45765;DHT22;31474;45.332;10.230;2022-11-15T16:58:43;11.40;99.90
45765;DHT22;31474;45.332;10.230;2022-11-15T17:01:22;11.30;99.90
45765;DHT22;31474;45.332;10.230;2022-11-15T17:03:48;11.30;99.90
45765;DHT22;31474;45.332;10.230;2022-11-15T17:06:14;11.40;99.90
45765;DHT22;31474;45.332;10.230;2022-11-15T17:08:40;11.40;99.90
45765;DHT22;31474;45.332;10.230;2022-11-15T17:11:07;11.40;99.90
45765;DHT22;31474;45.332;10.230;2022-11-15T17:13:33;11.50;99.90
45765;DHT22;31474;45.332;10.230;2022-11-15T17:16:27;11.40;99.90
45765;DHT22;31474;45.332;10.230;2022-11-15T17:18:53;11.40;99.90
45765;DHT22;31474;45.332;10.230;2022-11-15T17:21:21;11.50;99.90
45765;DHT22;31474;45.332;10.230;2022-11-15T17:23:47;11.50;99.90
45765;DHT22;31474;45.332;10.230;2022-11-15T17:26:14;11.50;99.90
45765;DHT22;31474;45.332;10.230;2022-11-15T17:28:40;11.50;99.90
45765;DHT22;31474;45.332;10.230;2022-11-15T17:31:11;11.50;99.90
45765;DHT22;31474;45.332;10.230;2022-11-15T17:33:38;11.50;99.90
45765;DHT22;31474;45.332;10.230;2022-11-15T17:36:07;11.50;99.90
45765;DHT22;31474;45.332;10.230;2022-11-15T17:38:33;11.50;99.90
45765;DHT22;31474;45.332;10.230;2022-11-15T17:41:09;11.50;99.90
45765;DHT22;31474;45.332;10.230;2022-11-15T17:43:36;11.50;99.90
45765;DHT22;31474;45.332;10.230;2022-11-15T17:46:08;11.40;99.90
45765;DHT22;31474;45.332;10.230;2022-11-15T17:48:35;11.40;99.90
45765;DHT22;31474;45.332;10.230;2022-11-15T17:51:03;11.40;99.90